createdAt,value
2022-09-12T00:03:56.526Z,11.75
2022-09-12T00:09:05.758Z,11.92
2022-09-12T00:14:12.912Z,12.09
2022-09-12T00:19:17.446Z,11.98
2022-09-12T00:24:23.895Z,12.07
2022-09-12T00:29:29.215Z,12.03
2022-09-12T00:34:33.872Z,12.11
2022-09-12T00:39:39.692Z,11.98
2022-09-12T00:44:51.906Z,11.96
2022-09-12T00:50:05.547Z,11.96
2022-09-12T00:55:15.102Z,11.86
2022-09-12T01:00:22.513Z,11.81
2022-09-12T01:05:31.142Z,11.90
2022-09-12T01:10:40.299Z,11.83
2022-09-12T01:15:44.592Z,11.83
2022-09-12T01:21:12.875Z,11.95
2022-09-12T01:26:46.297Z,11.85
2022-09-12T01:32:02.697Z,11.84
2022-09-12T01:37:16.127Z,11.78
2022-09-12T01:42:27.636Z,11.70
2022-09-12T01:47:42.334Z,11.73
2022-09-12T01:52:51.083Z,11.53
2022-09-12T01:57:59.992Z,11.35
2022-09-12T02:03:11.176Z,11.27
2022-09-12T02:08:20.929Z,11.44
2022-09-12T02:13:31.950Z,11.46
2022-09-12T02:18:41.061Z,11.50
2022-09-12T02:23:49.825Z,11.51
2022-09-12T02:28:54.459Z,11.47
2022-09-12T02:34:16.311Z,11.39
2022-09-12T02:39:22.063Z,11.58
2022-09-12T02:44:28.934Z,11.47
2022-09-12T02:49:35.505Z,11.42
2022-09-12T02:54:40.564Z,11.40
2022-09-12T02:59:44.983Z,11.13
2022-09-12T03:05:05.847Z,11.11
2022-09-12T03:10:21.076Z,11.11
2022-09-12T03:15:35.412Z,11.14
2022-09-12T03:20:49.964Z,11.08
2022-09-12T03:26:01.740Z,11.08
2022-09-12T03:31:16.530Z,10.98
2022-09-12T03:36:25.571Z,10.80
2022-09-12T03:41:30.013Z,10.49
2022-09-12T03:46:35.183Z,10.73
2022-09-12T03:51:41.655Z,10.59
2022-09-12T03:56:46.225Z,10.70
2022-09-12T04:01:50.853Z,10.73
2022-09-12T04:06:56.780Z,10.52
2022-09-12T04:12:01.228Z,10.42
2022-09-12T04:17:06.017Z,10.61
2022-09-12T04:22:12.242Z,10.78
2022-09-12T04:27:16.709Z,10.80
2022-09-12T04:32:22.460Z,10.67
2022-09-12T04:37:28.806Z,10.64
2022-09-12T04:42:33.162Z,10.90
2022-09-12T04:47:37.824Z,10.89
2022-09-12T04:52:43.993Z,11.08
2022-09-12T04:57:48.238Z,11.14
2022-09-12T05:02:52.561Z,11.13
2022-09-12T05:07:58.708Z,10.80
2022-09-12T05:13:03.301Z,11.04
2022-09-12T05:18:08.113Z,10.97
2022-09-12T05:23:14.687Z,11.14
2022-09-12T05:28:18.909Z,11.39
2022-09-12T05:33:25.193Z,11.45
2022-09-12T05:38:31.336Z,11.75
2022-09-12T05:43:36.225Z,11.89
2022-09-12T05:48:43.217Z,12.19
2022-09-12T05:53:51.148Z,12.25
2022-09-12T05:58:57.295Z,12.58
2022-09-12T06:04:05.430Z,12.57
2022-09-12T06:09:11.595Z,12.35
2022-09-12T06:14:17.922Z,12.48
2022-09-12T06:19:27.880Z,12.52
2022-09-12T06:24:34.143Z,12.63
2022-09-12T06:29:38.337Z,12.95
2022-09-12T06:34:43.368Z,13.35
2022-09-12T06:39:49.764Z,16.23
2022-09-12T06:44:54.547Z,19.43
2022-09-12T06:49:59.525Z,22.40
2022-09-12T06:55:06.609Z,23.44
2022-09-12T07:00:12.585Z,23.15
2022-09-12T07:05:17.475Z,19.72
2022-09-12T07:10:23.270Z,20.02
2022-09-12T07:15:28.027Z,21.34
2022-09-12T07:20:35.536Z,22.58
2022-09-12T07:25:41.299Z,20.96
2022-09-12T07:30:46.472Z,20.17
2022-09-12T07:35:51.463Z,17.68
2022-09-12T07:40:57.692Z,17.33
2022-09-12T07:46:02.240Z,20.89
2022-09-12T07:51:08.992Z,18.33
2022-09-12T07:56:15.241Z,16.52
2022-09-12T08:01:23.578Z,15.70
2022-09-12T08:06:32.433Z,17.24
2022-09-12T08:11:38.191Z,19.49
2022-09-12T08:16:43.300Z,20.99
2022-09-12T08:21:47.864Z,20.68
2022-09-12T08:26:53.447Z,20.37
2022-09-12T08:31:57.880Z,18.48
2022-09-12T08:37:04.503Z,17.49
2022-09-12T08:42:12.786Z,17.44
2022-09-12T08:47:24.297Z,18.56
2022-09-12T08:52:32.772Z,18.51
2022-09-12T08:57:38.791Z,18.77
2022-09-12T09:03:02.072Z,19.48
2022-09-12T09:08:18.034Z,17.85
2022-09-12T09:14:04.986Z,18.16
2022-09-12T09:19:17.623Z,17.56
2022-09-12T09:24:27.312Z,17.07
2022-09-12T09:29:39.676Z,17.75
2022-09-12T09:34:44.150Z,18.85
2022-09-12T09:39:59.834Z,19.70
2022-09-12T09:45:16.437Z,19.58
2022-09-12T09:50:21.294Z,18.20
2022-09-12T09:55:32.457Z,17.53
2022-09-12T10:00:39.996Z,17.76
2022-09-12T10:05:49.253Z,19.20
2022-09-12T10:11:03.777Z,19.76
2022-09-12T10:16:23.182Z,18.85
2022-09-12T10:21:34.287Z,19.78
2022-09-12T10:26:42.132Z,20.01
2022-09-12T10:31:54.260Z,19.39
2022-09-12T10:37:06.644Z,20.23
2022-09-12T10:42:20.308Z,20.10
2022-09-12T10:47:32.934Z,20.11
2022-09-12T10:52:37.334Z,21.48
2022-09-12T10:58:04.417Z,20.88
2022-09-12T11:03:18.377Z,20.22
2022-09-12T11:08:41.138Z,20.78
2022-09-12T11:14:07.102Z,20.14
2022-09-12T11:19:43.207Z,21.05
2022-09-12T11:25:14.148Z,20.37
2022-09-12T11:30:20.551Z,20.36
2022-09-12T11:35:29.704Z,21.12
2022-09-12T11:40:42.570Z,20.89
2022-09-12T11:45:49.402Z,20.85
2022-09-12T11:50:56.587Z,21.32
2022-09-12T11:56:07.795Z,21.56
2022-09-12T12:01:16.760Z,21.86
2022-09-12T12:06:26.121Z,21.53
2022-09-12T12:11:36.084Z,22.14
2022-09-12T12:16:41.666Z,21.23
2022-09-12T12:21:50.585Z,21.18
2022-09-12T12:27:02.414Z,20.92
2022-09-12T12:32:27.805Z,21.48
2022-09-12T12:38:00.484Z,21.55
2022-09-12T12:43:32.377Z,21.49
2022-09-12T12:49:10.128Z,21.58
2022-09-12T12:54:51.001Z,21.54
2022-09-12T13:00:00.705Z,22.02
2022-09-12T13:05:08.755Z,22.50
2022-09-12T13:10:24.946Z,23.01
2022-09-12T13:15:53.076Z,22.65
2022-09-12T13:21:11.241Z,22.13
2022-09-12T13:26:26.718Z,22.56
2022-09-12T13:31:31.536Z,23.39
2022-09-12T13:36:58.944Z,23.06
2022-09-12T13:42:29.819Z,21.46
2022-09-12T13:47:40.247Z,20.66
2022-09-12T13:52:48.797Z,21.75
2022-09-12T13:58:01.816Z,23.56
2022-09-12T14:03:44.327Z,23.13
2022-09-12T14:08:49.665Z,20.76
2022-09-12T14:13:56.439Z,20.20
2022-09-12T14:19:01.395Z,20.14
2022-09-12T14:24:08.940Z,18.93
2022-09-12T14:29:19.493Z,22.78
2022-09-12T14:34:25.346Z,22.43
2022-09-12T14:39:35.064Z,24.33
2022-09-12T14:44:42.860Z,22.94
2022-09-12T14:49:47.716Z,21.94
2022-09-12T14:54:58.771Z,20.50
2022-09-12T15:00:24.810Z,20.90
2022-09-12T15:05:29.888Z,19.67
2022-09-12T15:10:38.106Z,18.96
2022-09-12T15:15:46.374Z,18.98
2022-09-12T15:20:53.996Z,18.63
2022-09-12T15:25:59.152Z,18.58
2022-09-12T15:31:13.648Z,18.56
2022-09-12T15:36:20.438Z,18.12
2022-09-12T15:41:31.596Z,17.58
2022-09-12T15:46:37.630Z,17.33
2022-09-12T15:51:42.780Z,17.35
2022-09-12T15:56:47.350Z,17.16
2022-09-12T16:01:53.506Z,17.02
2022-09-12T16:06:58.913Z,16.73
2022-09-12T16:12:04.729Z,16.51
2022-09-12T16:17:10.600Z,16.45
2022-09-12T16:22:15.233Z,16.28
2022-09-12T16:27:19.952Z,16.31
2022-09-12T16:32:26.127Z,16.10
2022-09-12T16:37:31.275Z,15.96
2022-09-12T16:42:38.068Z,16.26
2022-09-12T16:47:46.676Z,16.18
2022-09-12T16:52:51.211Z,15.92
2022-09-12T16:57:55.846Z,15.96
2022-09-12T17:03:02.357Z,15.90
2022-09-12T17:08:08.903Z,15.44
2022-09-12T17:13:13.229Z,15.47
2022-09-12T17:18:19.217Z,15.52
2022-09-12T17:23:23.277Z,15.45
2022-09-12T17:28:28.378Z,15.53
2022-09-12T17:33:34.059Z,15.25
2022-09-12T17:38:41.407Z,14.94
2022-09-12T17:43:47.558Z,15.20
2022-09-12T17:48:56.133Z,15.31
2022-09-12T17:54:03.365Z,15.09
2022-09-12T17:59:09.807Z,14.82
2022-09-12T18:04:16.284Z,14.69
2022-09-12T18:09:22.780Z,14.61
2022-09-12T18:14:28.569Z,14.59
2022-09-12T18:19:34.542Z,14.47
2022-09-12T18:24:40.094Z,14.36
2022-09-12T18:29:51.951Z,14.20
2022-09-12T18:35:12.190Z,14.04
2022-09-12T18:40:17.506Z,13.90
2022-09-12T18:45:22.429Z,14.01
2022-09-12T18:50:28.108Z,13.85
2022-09-12T18:55:34.866Z,13.75
2022-09-12T19:00:41.415Z,13.69
2022-09-12T19:05:48.404Z,13.69
2022-09-12T19:10:58.573Z,13.61
2022-09-12T19:16:04.052Z,13.52
2022-09-12T19:21:14.864Z,13.52
2022-09-12T19:26:20.939Z,13.61
2022-09-12T19:31:26.897Z,13.58
2022-09-12T19:36:44.981Z,13.67
2022-09-12T19:41:54.493Z,13.58
2022-09-12T19:47:00.453Z,13.73
2022-09-12T19:52:08.989Z,13.95
2022-09-12T19:57:27.461Z,13.92
2022-09-12T20:02:45.618Z,13.88
2022-09-12T20:07:54.747Z,13.72
2022-09-12T20:12:59.410Z,13.42
2022-09-12T20:18:04.115Z,13.25
2022-09-12T20:23:10.817Z,13.33
2022-09-12T20:28:15.467Z,13.13
2022-09-12T20:33:19.934Z,13.06
2022-09-12T20:38:26.310Z,13.00
2022-09-12T20:43:30.976Z,13.01
2022-09-12T20:48:35.790Z,13.11
2022-09-12T20:53:42.405Z,13.23
2022-09-12T20:58:46.645Z,13.48
2022-09-12T21:03:51.666Z,13.59
2022-09-12T21:09:00.269Z,13.76
2022-09-12T21:14:04.453Z,13.98
2022-09-12T21:19:08.951Z,13.72
2022-09-12T21:24:16.285Z,13.45
2022-09-12T21:29:21.159Z,13.19
2022-09-12T21:34:26.220Z,12.87
2022-09-12T21:39:32.712Z,12.95
2022-09-12T21:44:37.685Z,12.78
2022-09-12T21:49:42.021Z,12.70
2022-09-12T21:54:48.026Z,12.54
2022-09-12T21:59:52.713Z,12.45
2022-09-12T22:04:57.205Z,12.44
2022-09-12T22:10:03.135Z,12.21
2022-09-12T22:15:29.172Z,12.15
2022-09-12T22:20:32.392Z,12.21
2022-09-12T22:25:38.816Z,12.13
2022-09-12T22:30:50.060Z,12.07
2022-09-12T22:35:55.101Z,11.99
2022-09-12T22:41:05.060Z,11.95
2022-09-12T22:46:09.664Z,11.83
2022-09-12T22:51:15.213Z,11.76
2022-09-12T22:56:21.523Z,11.66
2022-09-12T23:01:26.387Z,11.70
2022-09-12T23:06:31.483Z,11.68
2022-09-12T23:11:37.745Z,11.56
2022-09-12T23:16:42.435Z,11.40
2022-09-12T23:21:46.728Z,11.31
2022-09-12T23:26:52.808Z,11.33
2022-09-12T23:31:56.996Z,11.27
2022-09-12T23:37:01.627Z,11.31
2022-09-12T23:42:08.078Z,11.25
2022-09-12T23:47:12.534Z,11.29
2022-09-12T23:52:16.858Z,11.19
2022-09-12T23:57:22.451Z,11.20
